Time;durP1;ratioP1;P1;durP2;ratioP2;P2;SDS_P1;SDS_P2;PMS_P1;PMS_P2;Temp;Humidity;BMP_temperature;BMP_pressure;BME280_temperature;BME280_humidity;BME280_pressure;Samples;Min_cycle;Max_cycle;Signal;HPM_P1;HPM_P2
2021/06/15 00:02:03;;;;;;;4.90;3.03;;;12.60;99.90;;;;;;6158425;23;20001;-70
2021/06/15 00:04:29;;;;;;;5.00;2.42;;;12.60;99.90;;;;;;6184718;23;20115;-69
2021/06/15 00:06:55;;;;;;;3.97;2.15;;;12.60;99.90;;;;;;6184715;23;20001;-70
2021/06/15 00:09:20;;;;;;;2.75;2.03;;;12.60;99.90;;;;;;6184980;23;20028;-70
2021/06/15 00:11:46;;;;;;;3.78;2.35;;;12.60;99.90;;;;;;6184814;23;20531;-70
2021/06/15 00:14:12;;;;;;;2.60;1.98;;;12.60;99.90;;;;;;6184518;23;20329;-70
2021/06/15 00:16:38;;;;;;;2.92;2.30;;;12.60;99.90;;;;;;6184376;23;20079;-70
2021/06/15 00:19:03;;;;;;;4.07;2.00;;;12.50;99.90;;;;;;6184567;23;20032;-70
2021/06/15 00:21:29;;;;;;;3.00;1.90;;;12.50;99.90;;;;;;6184723;23;19997;-69
2021/06/15 00:23:55;;;;;;;3.05;2.10;;;12.40;99.90;;;;;;6184801;23;20314;-69
2021/06/15 00:26:20;;;;;;;3.33;2.10;;;12.40;99.90;;;;;;6184452;23;20055;-68
2021/06/15 00:28:47;;;;;;;3.15;2.30;;;12.30;99.90;;;;;;6184682;23;20049;-70
2021/06/15 00:31:12;;;;;;;2.88;2.13;;;12.30;99.90;;;;;;6184403;23;20001;-70
2021/06/15 00:33:38;;;;;;;2.30;1.70;;;12.30;99.90;;;;;;6184065;23;20033;-70
2021/06/15 00:36:04;;;;;;;3.60;2.22;;;12.30;99.90;;;;;;6184281;23;20025;-70
2021/06/15 00:38:30;;;;;;;3.22;1.90;;;12.30;99.90;;;;;;6184489;23;20087;-70
2021/06/15 00:40:56;;;;;;;3.70;2.35;;;12.30;99.90;;;;;;6184315;23;20433;-70
2021/06/15 00:43:21;;;;;;;3.20;1.90;;;12.30;99.90;;;;;;6184276;23;20005;-69
2021/06/15 00:45:47;;;;;;;2.25;1.90;;;12.30;99.90;;;;;;6183593;23;20017;-70
2021/06/15 00:48:28;;;;;;;2.85;1.85;;;12.30;99.90;;;;;;6184267;23;20012;-70
2021/06/15 00:50:54;;;;;;;2.22;1.80;;;12.30;99.90;;;;;;6184033;23;20028;-69
2021/06/15 00:53:20;;;;;;;4.03;2.00;;;12.30;99.90;;;;;;6184192;23;20464;-70
2021/06/15 00:55:46;;;;;;;5.53;2.50;;;12.40;99.90;;;;;;6184223;23;20001;-69
2021/06/15 00:58:12;;;;;;;2.47;1.98;;;12.30;99.90;;;;;;6157843;23;20001;-70
2021/06/15 01:00:38;;;;;;;2.80;2.03;;;12.30;99.90;;;;;;6184078;23;20055;-69
2021/06/15 01:03:04;;;;;;;3.63;2.15;;;12.30;99.90;;;;;;6184041;23;20009;-70
2021/06/15 01:05:30;;;;;;;3.15;2.20;;;12.30;99.90;;;;;;6184307;23;20005;-70
2021/06/15 01:08:22;;;;;;;3.38;2.40;;;12.40;99.90;;;;;;6184038;23;20001;-69
2021/06/15 01:44:30;;;;;;;3.25;1.70;;;12.60;99.90;;;;;;6157479;23;20079;-69
2021/06/15 01:47:08;;;;;;;2.08;1.88;;;12.60;99.90;;;;;;6183531;23;19998;-69
2021/06/15 01:49:50;;;;;;;2.70;1.60;;;12.50;99.90;;;;;;6183695;23;20000;-69
2021/06/15 01:52:16;;;;;;;3.47;1.38;;;12.50;99.90;;;;;;6183925;23;20008;-70
2021/06/15 01:54:43;;;;;;;2.53;1.50;;;12.50;99.90;;;;;;6183569;23;20001;-70
2021/06/15 01:57:12;;;;;;;3.67;1.50;;;12.50;99.90;;;;;;6183684;23;20008;-70
2021/06/15 01:59:42;;;;;;;5.75;1.55;;;12.50;99.90;;;;;;6183708;23;20032;-70
2021/06/15 02:02:09;;;;;;;1.52;1.25;;;12.50;99.90;;;;;;6183891;23;20080;-70
2021/06/15 02:04:41;;;;;;;2.00;1.20;;;12.40;99.90;;;;;;6157041;23;20013;-70
2021/06/15 02:07:12;;;;;;;1.80;1.23;;;12.40;99.90;;;;;;6184127;23;20009;-70
2021/06/15 02:09:41;;;;;;;2.28;1.15;;;12.40;99.90;;;;;;6183957;23;20325;-70
2021/06/15 02:12:07;;;;;;;2.45;1.23;;;12.40;99.90;;;;;;6183623;23;20005;-70
2021/06/15 02:14:35;;;;;;;3.28;1.42;;;12.30;99.90;;;;;;6183290;23;20005;-70
2021/06/15 02:17:02;;;;;;;1.35;1.02;;;12.40;99.90;;;;;;6183682;23;20055;-70
2021/06/15 02:19:31;;;;;;;2.63;1.35;;;12.40;99.90;;;;;;6183801;23;20080;-70
2021/06/15 02:22:12;;;;;;;2.05;1.30;;;12.40;99.90;;;;;;6183723;23;20012;-70
2021/06/15 02:24:42;;;;;;;2.55;1.50;;;12.40;99.90;;;;;;6183411;23;20080;-70
2021/06/15 02:27:11;;;;;;;1.40;1.15;;;12.30;99.90;;;;;;6183047;23;20001;-71
2021/06/15 02:29:38;;;;;;;2.78;1.50;;;12.30;99.90;;;;;;6183496;23;20333;-71
2021/06/15 02:32:06;;;;;;;3.42;1.58;;;12.30;99.90;;;;;;6183642;23;20084;-71
2021/06/15 02:34:36;;;;;;;3.13;1.30;;;12.30;99.90;;;;;;6183439;23;20080;-72
2021/06/15 02:37:06;;;;;;;2.53;1.38;;;12.30;99.90;;;;;;6184075;23;20005;-71
2021/06/15 02:39:36;;;;;;;2.60;1.10;;;12.30;99.90;;;;;;6157180;23;20009;-71
2021/06/15 02:42:07;;;;;;;1.88;1.23;;;12.20;99.90;;;;;;6183638;23;20231;-71
2021/06/15 02:44:37;;;;;;;1.40;0.98;;;12.20;99.90;;;;;;6183385;23;20052;-70
2021/06/15 02:47:04;;;;;;;2.08;1.05;;;12.10;99.90;;;;;;6183838;23;20024;-71
2021/06/15 02:49:32;;;;;;;2.38;1.00;;;12.10;99.90;;;;;;6183369;23;20370;-71
2021/06/15 02:52:12;;;;;;;2.05;0.80;;;12.00;99.90;;;;;;6157021;23;20013;-70
2021/06/15 02:54:53;;;;;;;1.25;0.95;;;12.00;99.90;;;;;;6183174;23;20457;-70
2021/06/15 02:57:20;;;;;;;0.95;0.70;;;12.00;99.90;;;;;;6183656;23;20009;-70
2021/06/15 02:59:47;;;;;;;1.92;0.85;;;12.00;99.90;;;;;;6183329;23;20000;-70
2021/06/15 03:02:12;;;;;;;1.15;0.90;;;12.00;99.90;;;;;;6183601;23;20448;-71
2021/06/15 03:04:38;;;;;;;1.58;0.68;;;12.00;99.90;;;;;;6183416;23;20013;-70
2021/06/15 03:07:04;;;;;;;0.90;0.80;;;12.00;99.90;;;;;;6183360;23;20001;-70
2021/06/15 03:09:30;;;;;;;0.70;0.70;;;11.90;99.90;;;;;;6184874;23;20005;-69
2021/06/15 03:12:22;;;;;;;3.13;0.70;;;11.90;99.90;;;;;;6185513;23;20001;-69
2021/06/15 03:15:05;;;;;;;4.45;0.77;;;11.90;99.90;;;;;;6169278;23;20353;-69
2021/06/15 03:17:33;;;;;;;2.47;0.52;;;11.90;99.90;;;;;;6185230;23;20005;-69
2021/06/15 03:20:06;;;;;;;9.70;0.60;;;11.90;99.90;;;;;;6185041;23;19997;-69
2021/06/15 03:22:50;;;;;;;1.17;0.68;;;11.90;99.90;;;;;;6185045;23;20440;-69
2021/06/15 03:25:21;;;;;;;0.95;0.50;;;11.90;99.90;;;;;;6184975;23;20016;-69
2021/06/15 03:27:54;;;;;;;0.75;0.70;;;11.90;99.90;;;;;;6184995;23;20016;-69
2021/06/15 03:30:21;;;;;;;1.13;0.60;;;11.90;99.90;;;;;;6185282;23;20005;-69
2021/06/15 03:32:52;;;;;;;1.05;0.80;;;11.90;99.90;;;;;;6184905;23;20001;-69
2021/06/15 03:35:20;;;;;;;2.40;0.60;;;11.90;99.90;;;;;;6184848;23;20464;-70
2021/06/15 03:37:59;;;;;;;2.25;0.57;;;11.90;99.90;;;;;;6184910;23;20451;-70
2021/06/15 03:40:27;;;;;;;2.00;0.60;;;11.90;99.90;;;;;;6184908;23;20451;-70
2021/06/15 03:42:57;;;;;;;1.52;0.57;;;12.00;99.90;;;;;;6184898;23;20001;-71
2021/06/15 03:45:28;;;;;;;1.67;0.60;;;11.90;99.90;;;;;;6184895;23;20021;-71
2021/06/15 03:47:55;;;;;;;1.85;0.65;;;11.90;99.90;;;;;;6185108;23;20024;-71
2021/06/15 03:50:22;;;;;;;2.50;0.60;;;11.90;99.90;;;;;;6184943;23;20044;-71
2021/06/15 03:52:53;;;;;;;0.55;0.55;;;11.90;99.90;;;;;;6184623;23;20424;-70
2021/06/15 03:55:23;;;;;;;0.60;0.60;;;11.90;99.90;;;;;;6184683;23;20056;-70
2021/06/15 03:57:49;;;;;;;1.13;0.52;;;11.90;99.90;;;;;;6184674;23;20004;-70
2021/06/15 04:00:18;;;;;;;1.10;0.70;;;11.90;99.90;;;;;;6185333;23;20039;-70
2021/06/15 04:02:48;;;;;;;1.48;0.77;;;11.90;99.90;;;;;;6184680;23;20001;-70
2021/06/15 04:05:18;;;;;;;0.50;0.50;;;11.90;99.90;;;;;;6184635;23;20341;-70
2021/06/15 04:07:46;;;;;;;1.30;0.55;;;11.90;99.90;;;;;;6184811;23;20024;-70
2021/06/15 04:10:14;;;;;;;1.55;0.70;;;11.90;99.90;;;;;;6184837;23;20079;-70
2021/06/15 04:12:40;;;;;;;0.88;0.60;;;11.90;99.90;;;;;;6184261;23;20036;-70
2021/06/15 04:15:09;;;;;;;0.90;0.75;;;12.00;99.90;;;;;;6184836;23;20047;-70
2021/06/15 04:17:37;;;;;;;2.30;0.68;;;12.00;99.90;;;;;;6184860;23;20005;-70
2021/06/15 04:20:05;;;;;;;1.45;0.60;;;12.00;99.90;;;;;;6183806;23;20001;-70
2021/06/15 04:22:35;;;;;;;1.05;0.60;;;12.00;99.90;;;;;;6184254;23;20429;-70
2021/06/15 04:25:05;;;;;;;;;;;12.00;99.90;;;;;;6184796;23;20013;-70
2021/06/15 04:27:33;;;;;;;0.55;0.50;;;12.10;99.90;;;;;;6184357;23;20387;-69
2021/06/15 04:30:00;;;;;;;0.75;0.68;;;12.10;99.90;;;;;;6184404;23;20005;-70
2021/06/15 04:32:51;;;;;;;0.98;0.52;;;12.10;99.90;;;;;;6184455;23;20048;-68
2021/06/15 04:35:46;;;;;;;2.33;0.80;;;12.10;99.90;;;;;;6184434;23;20005;-67
2021/06/15 04:38:17;;;;;;;4.88;0.82;;;12.10;99.90;;;;;;6180678;23;20052;-68
2021/06/15 04:40:50;;;;;;;2.47;0.70;;;12.30;99.90;;;;;;6157691;23;20013;-67
2021/06/15 04:43:19;;;;;;;1.98;0.60;;;13.60;99.90;;;;;;6184236;23;20088;-69
2021/06/15 04:45:45;;;;;;;0.63;0.47;;;13.90;99.90;;;;;;6183870;23;20012;-68
2021/06/15 04:48:23;;;;;;;0.90;0.68;;;13.50;99.90;;;;;;6184534;23;20080;-69
2021/06/15 04:50:50;;;;;;;1.02;0.70;;;13.10;99.90;;;;;;6184089;23;20030;-71
2021/06/15 04:53:17;;;;;;;3.15;0.60;;;12.90;99.90;;;;;;6184503;23;20012;-71
2021/06/15 04:55:44;;;;;;;0.60;0.47;;;12.90;99.90;;;;;;6184323;23;20001;-71
2021/06/15 04:58:12;;;;;;;0.40;0.40;;;13.00;99.90;;;;;;6184669;23;20012;-71
2021/06/15 05:00:39;;;;;;;1.95;0.60;;;13.10;99.90;;;;;;6184061;23;20051;-71
2021/06/15 05:03:06;;;;;;;1.13;0.60;;;13.10;99.90;;;;;;6184530;23;20031;-70
2021/06/15 05:05:33;;;;;;;2.17;0.50;;;13.20;99.90;;;;;;6183728;23;20433;-71
2021/06/15 05:08:01;;;;;;;1.58;0.52;;;13.20;99.90;;;;;;6184074;23;19997;-70
2021/06/15 05:10:29;;;;;;;1.55;0.63;;;13.20;99.90;;;;;;6184287;23;20322;-70
2021/06/15 05:12:55;;;;;;;0.93;0.73;;;13.30;99.90;;;;;;6157617;23;20059;-70
2021/06/15 05:15:27;;;;;;;2.40;0.50;;;13.30;99.90;;;;;;6183995;23;20008;-70
2021/06/15 05:17:55;;;;;;;1.35;0.63;;;13.40;99.90;;;;;;6184206;23;20028;-69
2021/06/15 05:20:23;;;;;;;2.15;0.60;;;13.30;99.90;;;;;;6183757;23;20008;-70
2021/06/15 05:22:55;;;;;;;1.45;0.55;;;13.30;99.90;;;;;;6184094;23;20333;-70
2021/06/15 05:25:21;;;;;;;0.80;0.57;;;13.40;99.90;;;;;;6183910;23;20005;-70
2021/06/15 05:27:48;;;;;;;3.20;0.70;;;13.50;99.90;;;;;;6184094;23;20040;-70
2021/06/15 05:30:13;;;;;;;2.08;0.80;;;13.60;99.90;;;;;;6183759;23;20001;-70
2021/06/15 05:32:39;;;;;;;0.75;0.60;;;13.80;99.90;;;;;;6184122;23;20024;-70
2021/06/15 05:35:05;;;;;;;2.22;0.90;;;13.90;99.90;;;;;;6184062;23;20001;-70
2021/06/15 05:37:31;;;;;;;1.85;1.00;;;14.00;99.90;;;;;;6183677;23;20388;-70
2021/06/15 05:39:57;;;;;;;1.10;0.70;;;14.20;99.90;;;;;;6183921;23;20028;-70
2021/06/15 05:42:24;;;;;;;1.48;0.80;;;14.40;99.90;;;;;;6183968;23;20303;-70
2021/06/15 05:44:50;;;;;;;1.42;0.73;;;14.60;99.90;;;;;;6183066;23;20020;-70
2021/06/15 05:47:16;;;;;;;4.78;1.00;;;14.90;99.90;;;;;;6183859;23;20357;-70
2021/06/15 05:49:42;;;;;;;2.85;0.80;;;15.20;99.90;;;;;;6183856;23;20008;-70
2021/06/15 05:52:10;;;;;;;0.85;0.60;;;15.50;99.90;;;;;;6183556;23;20012;-70
2021/06/15 05:54:37;;;;;;;1.90;0.75;;;15.70;99.90;;;;;;6183781;23;19997;-69
2021/06/15 05:57:04;;;;;;;2.78;1.00;;;15.90;99.90;;;;;;6183517;23;20541;-70
2021/06/15 05:59:30;;;;;;;2.45;0.88;;;16.10;99.90;;;;;;6157234;23;20085;-69
2021/06/15 06:01:56;;;;;;;3.28;0.80;;;16.10;99.90;;;;;;6183513;23;20033;-69
2021/06/15 06:04:25;;;;;;;2.75;1.00;;;16.30;99.90;;;;;;6183603;23;20009;-68
2021/06/15 06:09:37;;;;;;;1.40;0.77;;;16.70;99.90;;;;;;6183485;23;20095;-72
2021/06/15 06:12:04;;;;;;;1.15;0.75;;;16.80;99.90;;;;;;6183699;23;20485;-68
2021/06/15 06:14:30;;;;;;;4.57;0.85;;;17.00;99.90;;;;;;6183478;23;20005;-68
2021/06/15 06:16:55;;;;;;;6.63;0.80;;;16.90;99.90;;;;;;6183412;23;20088;-68
2021/06/15 06:19:21;;;;;;;2.13;0.90;;;16.80;99.90;;;;;;6183838;23;20492;-68
2021/06/15 06:21:48;;;;;;;4.57;0.80;;;16.90;99.90;;;;;;6183375;23;20079;-68
2021/06/15 06:24:17;;;;;;;3.97;0.65;;;17.00;99.90;;;;;;6183943;23;20013;-68
2021/06/15 06:26:44;;;;;;;3.17;0.50;;;16.90;99.90;;;;;;6183488;23;20002;-68
2021/06/15 06:29:10;;;;;;;3.47;0.75;;;16.70;99.90;;;;;;6183787;23;20055;-68
2021/06/15 06:31:36;;;;;;;2.83;0.73;;;16.60;99.90;;;;;;6183319;23;19997;-68
2021/06/15 06:34:02;;;;;;;1.15;0.60;;;16.60;99.90;;;;;;6183777;23;20005;-68
2021/06/15 06:36:27;;;;;;;10.80;0.95;;;16.70;99.90;;;;;;6184036;23;20005;-68
2021/06/15 06:38:53;;;;;;;1.65;0.60;;;16.80;99.90;;;;;;6183265;23;20344;-68
2021/06/15 06:41:20;;;;;;;2.28;0.70;;;17.00;99.50;;;;;;6183576;23;20005;-68
2021/06/15 06:43:46;;;;;;;1.83;0.50;;;17.10;99.00;;;;;;6184196;23;20013;-68
2021/06/15 06:46:12;;;;;;;3.90;0.60;;;17.10;97.10;;;;;;6185053;23;20060;-68
2021/06/15 06:48:38;;;;;;;4.53;1.15;;;17.10;94.60;;;;;;6184948;23;20001;-69
2021/06/15 06:51:04;;;;;;;2.58;0.68;;;17.20;94.40;;;;;;6184997;23;20537;-69
2021/06/15 06:53:32;;;;;;;3.50;0.50;;;17.20;93.20;;;;;;6185117;23;20013;-69
2021/06/15 06:55:59;;;;;;;2.95;0.70;;;17.20;92.50;;;;;;6184867;23;20005;-68
2021/06/15 06:58:25;;;;;;;3.92;0.77;;;17.10;91.00;;;;;;6185598;23;20303;-68
2021/06/15 07:00:50;;;;;;;1.02;0.45;;;17.10;90.70;;;;;;6185278;23;20082;-68
2021/06/15 07:03:16;;;;;;;3.45;0.50;;;17.00;89.10;;;;;;6185395;23;20477;-68
2021/06/15 07:05:42;;;;;;;1.35;0.50;;;16.90;90.10;;;;;;6185251;23;20337;-68
2021/06/15 07:08:08;;;;;;;3.38;0.70;;;16.80;90.00;;;;;;6185424;23;20056;-68
2021/06/15 07:10:34;;;;;;;1.58;0.52;;;16.80;90.30;;;;;;6185028;23;20008;-68
2021/06/15 07:13:00;;;;;;;2.72;0.50;;;16.80;90.10;;;;;;6184874;23;20005;-68
2021/06/15 07:15:26;;;;;;;0.82;0.40;;;16.70;87.50;;;;;;6184935;23;20078;-68
2021/06/15 07:17:52;;;;;;;2.30;0.60;;;16.60;86.90;;;;;;6185316;23;19997;-68
2021/06/15 07:20:18;;;;;;;8.18;0.50;;;16.70;88.70;;;;;;6185329;23;20108;-68
2021/06/15 07:22:43;;;;;;;4.18;0.57;;;16.70;85.80;;;;;;6185320;23;20001;-68
2021/06/15 07:25:10;;;;;;;7.50;0.57;;;16.80;87.00;;;;;;6184888;23;20496;-68
2021/06/15 07:27:36;;;;;;;7.35;0.55;;;16.80;85.50;;;;;;6184922;23;20398;-68
2021/06/15 07:30:03;;;;;;;1.65;0.50;;;16.80;83.80;;;;;;6184838;23;20001;-69
2021/06/15 07:32:29;;;;;;;1.40;0.43;;;16.70;81.10;;;;;;6184799;23;20001;-69
2021/06/15 07:34:55;;;;;;;5.28;0.60;;;16.60;81.90;;;;;;6185256;23;20590;-68
2021/06/15 07:37:21;;;;;;;2.15;0.68;;;16.70;80.60;;;;;;6185405;23;20425;-69
2021/06/15 07:39:47;;;;;;;0.68;0.40;;;16.80;81.10;;;;;;6184919;23;20604;-68
2021/06/15 07:42:13;;;;;;;8.93;0.80;;;16.90;79.20;;;;;;6184895;23;20001;-72
2021/06/15 07:44:39;;;;;;;7.68;0.55;;;17.00;78.40;;;;;;6184431;23;20475;-68
2021/06/15 07:47:05;;;;;;;3.08;0.68;;;17.10;78.60;;;;;;6184885;23;20001;-68
2021/06/15 07:49:31;;;;;;;1.05;0.60;;;17.20;77.10;;;;;;6184814;23;20001;-67
2021/06/15 07:51:57;;;;;;;1.17;0.57;;;17.30;75.80;;;;;;6184508;23;20054;-67
2021/06/15 07:54:23;;;;;;;5.22;0.52;;;17.20;75.60;;;;;;6184464;23;20005;-68
2021/06/15 07:56:49;;;;;;;1.38;0.35;;;17.20;74.50;;;;;;6184318;23;20009;-68
2021/06/15 07:59:15;;;;;;;4.28;0.70;;;17.20;74.70;;;;;;6184402;23;20001;-68
2021/06/15 08:01:41;;;;;;;2.45;0.70;;;17.20;73.50;;;;;;6184174;23;20000;-67
2021/06/15 08:04:07;;;;;;;3.25;0.95;;;17.30;74.60;;;;;;6184727;23;20056;-67
2021/06/15 08:06:36;;;;;;;1.90;0.55;;;17.30;73.20;;;;;;6184830;23;20062;-68
2021/06/15 08:09:02;;;;;;;3.63;1.00;;;17.30;73.80;;;;;;6184684;23;20029;-68
2021/06/15 08:11:28;;;;;;;2.35;0.50;;;17.40;74.00;;;;;;6184589;23;20016;-68
2021/06/15 08:13:54;;;;;;;2.38;0.63;;;17.50;73.50;;;;;;6184579;23;20072;-69
2021/06/15 08:16:20;;;;;;;3.25;0.45;;;17.60;71.20;;;;;;6184443;23;20530;-68
2021/06/15 08:18:46;;;;;;;1.48;0.50;;;17.50;70.50;;;;;;6184451;23;20040;-68
2021/06/15 08:21:13;;;;;;;3.70;0.60;;;17.60;71.30;;;;;;6184782;23;20005;-68
2021/06/15 08:23:39;;;;;;;5.00;0.77;;;17.60;72.00;;;;;;6184499;23;20012;-70
2021/06/15 08:26:05;;;;;;;1.90;0.70;;;17.60;71.70;;;;;;6185050;23;20008;-73
2021/06/15 08:28:31;;;;;;;2.63;0.50;;;17.60;71.70;;;;;;6185362;23;20008;-66
2021/06/15 08:49:18;;;;;;;2.60;0.50;;;17.60;67.20;;;;;;5142701;27;20367;-69
2021/06/15 08:51:45;;;;;;;1.75;0.70;;;18.20;66.50;;;;;;5093548;28;20033;-69
2021/06/15 08:54:15;;;;;;;1.27;0.40;;;18.20;66.90;;;;;;5089224;28;20029;-73
2021/06/15 08:56:42;;;;;;;0.95;0.32;;;18.30;66.40;;;;;;5089182;28;20021;-73
2021/06/15 08:59:22;;;;;;;0.85;0.30;;;18.20;67.20;;;;;;5096857;28;20034;-73
2021/06/15 09:01:49;;;;;;;;;;;18.20;67.70;;;;;;5109968;28;20102;-68
2021/06/15 09:04:16;;;;;;;4.25;0.70;;;18.20;65.40;;;;;;5142372;27;19911;-68
2021/06/15 09:06:42;;;;;;;0.52;0.30;;;18.20;67.10;;;;;;5109691;28;20038;-68
2021/06/15 09:09:07;;;;;;;3.45;0.45;;;18.20;67.20;;;;;;5109423;28;20494;-68
2021/06/15 09:11:56;;;;;;;1.67;0.47;;;18.30;67.30;;;;;;5109295;28;20479;-68
2021/06/15 09:14:43;;;;;;;0.77;0.40;;;18.30;67.10;;;;;;5091132;28;20036;-67
2021/06/15 09:17:11;;;;;;;1.88;0.45;;;18.40;64.60;;;;;;5088559;28;20024;-67
2021/06/15 09:19:40;;;;;;;1.42;0.50;;;18.30;64.60;;;;;;5088750;28;20111;-67
2021/06/15 09:22:06;;;;;;;6.40;0.63;;;18.30;64.40;;;;;;5088703;28;20087;-67
2021/06/15 09:24:42;;;;;;;2.30;0.32;;;18.30;65.60;;;;;;5087247;28;20031;-67
2021/06/15 09:27:08;;;;;;;3.30;0.40;;;18.40;65.70;;;;;;5088586;28;20020;-67
2021/06/15 09:29:48;;;;;;;4.25;0.63;;;18.50;64.70;;;;;;5088482;28;20028;-69
2021/06/15 09:32:19;;;;;;;0.73;0.43;;;18.60;65.00;;;;;;5088473;28;20056;-74
2021/06/15 09:35:07;;;;;;;2.92;0.50;;;18.70;66.10;;;;;;5088492;28;20493;-74
2021/06/15 09:37:40;;;;;;;0.68;0.45;;;18.80;64.60;;;;;;5088237;28;20442;-74
2021/06/15 09:40:13;;;;;;;0.63;0.35;;;18.80;64.60;;;;;;5088279;28;20391;-74
2021/06/15 09:42:54;;;;;;;2.33;0.40;;;18.90;64.00;;;;;;5076848;28;20029;-73
2021/06/15 09:45:21;;;;;;;3.17;0.30;;;18.90;64.80;;;;;;5083066;28;20032;-74
2021/06/15 09:47:47;;;;;;;2.33;0.52;;;18.90;63.60;;;;;;5075539;28;20109;-76
2021/06/15 09:50:13;;;;;;;1.65;0.40;;;18.80;63.50;;;;;;5054159;28;20423;-78
2021/06/15 09:52:38;;;;;;;1.83;0.40;;;18.80;62.50;;;;;;5061986;28;20016;-69
2021/06/15 09:55:06;;;;;;;2.30;0.30;;;18.70;61.90;;;;;;5074659;28;20074;-68
2021/06/15 09:57:37;;;;;;;10.10;0.90;;;18.70;61.10;;;;;;5058942;28;20037;-68
2021/06/15 10:00:19;;;;;;;3.47;0.60;;;18.80;64.60;;;;;;5054224;28;20021;-69
2021/06/15 10:03:00;;;;;;;2.05;0.30;;;18.90;62.30;;;;;;5054552;28;20481;-69
2021/06/15 10:05:34;;;;;;;0.60;0.30;;;18.80;61.20;;;;;;5054316;28;20031;-69
2021/06/15 10:08:03;;;;;;;0.93;0.50;;;18.60;62.50;;;;;;5053200;28;20032;-69
2021/06/15 10:10:44;;;;;;;2.60;0.28;;;18.50;60.80;;;;;;5054191;28;20021;-69
2021/06/15 10:13:11;;;;;;;1.83;0.35;;;18.40;61.60;;;;;;5054244;28;20033;-69
2021/06/15 10:15:38;;;;;;;2.95;0.32;;;18.30;61.10;;;;;;5054485;28;20048;-69
2021/06/15 10:18:06;;;;;;;3.83;0.40;;;18.40;62.20;;;;;;5052894;28;20096;-69
2021/06/15 10:20:33;;;;;;;0.50;0.20;;;18.40;63.10;;;;;;5054022;28;20143;-69
2021/06/15 10:23:01;;;;;;;2.08;0.30;;;18.40;59.70;;;;;;5054452;28;20029;-67
2021/06/15 10:25:29;;;;;;;2.53;0.30;;;18.30;59.90;;;;;;5053833;28;20131;-67
2021/06/15 10:27:56;;;;;;;1.88;0.30;;;18.10;60.00;;;;;;5056280;28;20065;-67
2021/06/15 10:30:33;;;;;;;4.47;0.55;;;18.10;61.60;;;;;;5073850;28;20025;-69
2021/06/15 10:33:02;;;;;;;1.25;0.40;;;18.20;60.90;;;;;;5071153;28;20499;-67
2021/06/15 10:35:43;;;;;;;0.80;0.28;;;18.30;60.50;;;;;;5057781;28;20380;-67
2021/06/15 10:38:11;;;;;;;3.45;0.40;;;18.50;59.70;;;;;;5074037;28;20033;-73
2021/06/15 10:40:41;;;;;;;0.85;0.20;;;18.50;59.60;;;;;;5073183;28;20036;-67
2021/06/15 10:43:19;;;;;;;;;;;18.70;59.80;;;;;;5072534;28;20495;-67
2021/06/15 10:45:54;;;;;;;2.50;0.28;;;18.60;57.80;;;;;;5073625;28;19911;-67
2021/06/15 10:48:20;;;;;;;0.10;0.10;;;18.40;58.00;;;;;;5073374;28;20056;-67
2021/06/15 10:50:47;;;;;;;0.10;0.10;;;18.30;58.00;;;;;;5073553;28;20017;-67
2021/06/15 10:53:34;;;;;;;0.82;0.20;;;18.20;57.40;;;;;;5073611;28;20021;-67
2021/06/15 10:56:06;;;;;;;0.30;0.22;;;18.10;57.20;;;;;;5073048;28;20036;-67
2021/06/15 10:58:32;;;;;;;3.60;0.47;;;18.00;57.90;;;;;;5073457;28;20142;-69
2021/06/15 11:01:15;;;;;;;0.28;0.20;;;18.00;58.00;;;;;;5072442;28;20463;-69
2021/06/15 11:03:45;;;;;;;3.47;0.30;;;18.00;57.60;;;;;;5073216;28;20067;-68
2021/06/15 11:06:12;;;;;;;0.75;0.20;;;18.10;59.40;;;;;;5071899;28;20154;-67
2021/06/15 11:08:38;;;;;;;0.70;0.20;;;18.10;57.30;;;;;;5071251;28;20063;-67
2021/06/15 11:11:23;;;;;;;2.40;0.20;;;18.00;57.20;;;;;;5073131;28;20428;-67
2021/06/15 11:13:54;;;;;;;2.20;0.20;;;17.90;57.50;;;;;;5073184;28;20021;-67
2021/06/15 11:16:37;;;;;;;2.80;0.30;;;17.90;57.80;;;;;;5073220;28;20024;-67
2021/06/15 11:19:33;;;;;;;0.50;0.30;;;17.90;58.40;;;;;;5071782;28;20119;-69
2021/06/15 11:22:05;;;;;;;1.13;0.30;;;17.80;58.40;;;;;;5069294;28;20101;-68
2021/06/15 11:24:31;;;;;;;0.45;0.20;;;17.80;58.50;;;;;;5072797;28;20036;-68
2021/06/15 11:26:59;;;;;;;0.88;0.20;;;17.80;58.50;;;;;;5072823;28;20104;-67
2021/06/15 11:29:45;;;;;;;1.45;0.32;;;17.80;59.20;;;;;;5072617;28;20017;-67
2021/06/15 11:32:28;;;;;;;3.08;0.30;;;17.90;58.10;;;;;;5071487;28;20021;-67
2021/06/15 11:34:54;;;;;;;1.23;0.13;;;17.90;58.80;;;;;;5072647;28;20484;-67
2021/06/15 11:37:28;;;;;;;2.28;0.32;;;18.00;58.50;;;;;;5072369;28;20044;-67
2021/06/15 11:40:18;;;;;;;1.25;0.20;;;18.10;58.10;;;;;;5072537;28;20017;-67
2021/06/15 11:42:53;;;;;;;1.98;0.28;;;18.10;58.60;;;;;;5061751;28;20040;-67
2021/06/15 11:45:19;;;;;;;4.30;0.35;;;17.90;57.70;;;;;;5072313;28;20131;-67
2021/06/15 11:47:49;;;;;;;1.27;0.55;;;17.90;58.50;;;;;;5072345;28;20123;-67
2021/06/15 11:50:28;;;;;;;1.10;0.20;;;17.80;59.10;;;;;;5072476;28;20493;-69
2021/06/15 11:52:59;;;;;;;0.98;0.30;;;17.90;58.20;;;;;;5072613;28;20029;-68
2021/06/15 11:55:35;;;;;;;0.25;0.20;;;17.90;57.00;;;;;;5072395;28;20372;-69
2021/06/15 11:58:03;;;;;;;0.10;0.10;;;18.00;55.90;;;;;;5072597;28;20101;-69
2021/06/15 12:00:30;;;;;;;1.55;0.30;;;18.00;55.30;;;;;;5071996;28;20472;-67
2021/06/15 12:03:12;;;;;;;2.03;0.35;;;17.90;55.00;;;;;;5072232;28;20028;-69
2021/06/15 12:05:39;;;;;;;1.35;0.20;;;17.90;54.50;;;;;;5072179;28;20056;-67
2021/06/15 12:08:05;;;;;;;1.65;0.20;;;17.70;54.10;;;;;;5072002;28;20024;-67
2021/06/15 12:10:32;;;;;;;0.30;0.10;;;17.70;54.70;;;;;;5071807;28;20029;-67
2021/06/15 12:13:33;;;;;;;1.42;0.35;;;17.70;54.90;;;;;;5071839;28;20497;-67
2021/06/15 12:16:11;;;;;;;2.03;0.20;;;17.80;55.50;;;;;;5048544;28;20115;-67
2021/06/15 12:18:41;;;;;;;1.88;0.30;;;17.80;55.80;;;;;;5071736;28;20037;-67
2021/06/15 12:21:14;;;;;;;3.10;0.20;;;18.00;54.60;;;;;;5072222;28;20077;-67
2021/06/15 12:23:44;;;;;;;0.82;0.30;;;18.10;55.00;;;;;;5070603;28;20163;-67
2021/06/15 12:26:10;;;;;;;;;;;18.20;54.90;;;;;;5072320;28;20514;-67
2021/06/15 12:28:40;;;;;;;0.82;0.38;;;18.30;55.60;;;;;;5071770;28;20198;-67
2021/06/15 12:31:11;;;;;;;0.55;0.30;;;18.40;55.00;;;;;;5071797;28;20029;-67
2021/06/15 12:33:39;;;;;;;0.85;0.10;;;18.40;55.30;;;;;;5070511;28;20028;-67
2021/06/15 12:36:08;;;;;;;3.47;0.35;;;18.50;55.10;;;;;;5071768;28;20025;-67
2021/06/15 12:38:34;;;;;;;0.30;0.20;;;18.40;54.60;;;;;;5071682;28;20493;-67
2021/06/15 12:41:03;;;;;;;2.72;0.30;;;18.40;54.90;;;;;;5071778;28;20021;-67
2021/06/15 12:43:29;;;;;;;3.72;0.25;;;18.40;55.40;;;;;;5071542;28;20099;-67
2021/06/15 12:46:21;;;;;;;1.33;0.30;;;18.40;55.90;;;;;;5071609;28;20020;-67
2021/06/15 12:48:53;;;;;;;2.58;0.82;;;18.40;56.40;;;;;;5071535;28;20076;-67
2021/06/15 12:51:41;;;;;;;0.20;0.20;;;18.30;56.70;;;;;;5071524;28;20101;-67
2021/06/15 12:54:21;;;;;;;1.58;0.28;;;18.30;56.40;;;;;;5071908;28;20107;-67
2021/06/15 12:57:06;;;;;;;0.28;0.10;;;18.30;56.80;;;;;;5071532;28;20031;-67
2021/06/15 12:59:35;;;;;;;0.35;0.20;;;18.30;57.00;;;;;;5071546;28;20392;-67
2021/06/15 13:02:17;;;;;;;0.30;0.17;;;18.30;55.80;;;;;;5070276;28;20078;-67
2021/06/15 13:04:53;;;;;;;0.00;0.00;;;18.20;56.00;;;;;;5071730;28;20052;-68
2021/06/15 13:07:19;;;;;;;0.22;0.22;;;18.30;56.90;;;;;;5071495;28;20020;-69
2021/06/15 13:09:47;;;;;;;0.60;0.20;;;18.30;57.30;;;;;;5071893;28;20032;-69
2021/06/15 13:12:22;;;;;;;0.40;0.10;;;18.40;56.70;;;;;;5071620;28;20434;-69
2021/06/15 13:15:05;;;;;;;0.10;0.10;;;18.40;54.90;;;;;;5071897;28;20020;-69
2021/06/15 13:17:33;;;;;;;1.35;0.10;;;18.50;55.00;;;;;;5071297;28;20032;-69
2021/06/15 13:20:07;;;;;;;0.73;0.20;;;18.60;54.90;;;;;;5071610;28;20119;-69
2021/06/15 13:22:37;;;;;;;2.08;0.13;;;18.50;54.10;;;;;;5071210;28;20017;-69
2021/06/15 13:25:09;;;;;;;3.65;0.30;;;18.40;54.70;;;;;;5074434;28;20028;-69
2021/06/15 13:27:44;;;;;;;0.63;0.10;;;18.30;53.80;;;;;;5074861;28;20028;-69
2021/06/15 13:30:12;;;;;;;0.20;0.10;;;18.30;54.60;;;;;;5074891;28;20025;-67
2021/06/15 13:32:41;;;;;;;1.25;0.20;;;18.40;54.60;;;;;;5074904;28;20024;-67
2021/06/15 13:35:16;;;;;;;0.20;0.13;;;18.40;55.20;;;;;;5073877;28;20021;-69
2021/06/15 13:37:58;;;;;;;0.47;0.30;;;18.50;55.30;;;;;;5074826;28;20095;-69
2021/06/15 13:40:29;;;;;;;6.30;1.35;;;18.50;54.60;;;;;;5074720;28;20349;-67
2021/06/15 13:42:57;;;;;;;1.27;0.35;;;18.60;55.70;;;;;;5073544;28;20399;-67
2021/06/15 13:45:29;;;;;;;1.88;0.20;;;18.70;54.50;;;;;;5075011;28;20028;-68
2021/06/15 13:47:54;;;;;;;0.35;0.20;;;18.80;55.50;;;;;;5074542;28;20041;-67
2021/06/15 13:50:21;;;;;;;3.42;0.38;;;18.90;54.90;;;;;;5074533;28;20029;-67
2021/06/15 13:52:47;;;;;;;0.32;0.20;;;19.00;54.40;;;;;;5074643;28;20472;-67
2021/06/15 13:55:14;;;;;;;0.10;0.10;;;19.00;53.60;;;;;;5074909;28;20033;-67
2021/06/15 13:57:40;;;;;;;0.10;0.10;;;18.80;54.00;;;;;;5074368;28;20032;-67